createdAt,value
2023-05-04T00:01:49.082Z,92.80
2023-05-04T00:04:15.926Z,93.10
2023-05-04T00:06:42.552Z,91.90
2023-05-04T00:09:10.872Z,92.60
2023-05-04T00:11:37.680Z,93.00
2023-05-04T00:14:04.271Z,93.80
2023-05-04T00:16:30.894Z,94.50
2023-05-04T00:18:57.553Z,94.80
2023-05-04T00:21:24.184Z,94.50
2023-05-04T00:23:50.786Z,94.90
2023-05-04T00:26:17.388Z,93.60
2023-05-04T00:28:44.032Z,93.40
2023-05-04T00:31:10.961Z,94.00
2023-05-04T00:33:37.582Z,94.40
2023-05-04T00:36:04.431Z,95.00
2023-05-04T00:38:31.111Z,95.10
2023-05-04T00:40:58.924Z,95.60
2023-05-04T00:43:26.659Z,95.10
2023-05-04T00:45:53.242Z,95.10
2023-05-04T00:48:20.121Z,95.60
2023-05-04T00:50:46.862Z,96.20
2023-05-04T00:53:13.755Z,95.90
2023-05-04T00:55:41.002Z,96.70
2023-05-04T00:58:09.109Z,96.40
2023-05-04T01:00:36.333Z,96.90
2023-05-04T01:03:02.988Z,97.00
2023-05-04T01:05:35.228Z,97.50
2023-05-04T01:08:07.644Z,97.30
2023-05-04T01:10:44.197Z,97.40
2023-05-04T01:13:16.152Z,98.00
2023-05-04T01:15:43.176Z,97.30
2023-05-04T01:18:10.036Z,97.80
2023-05-04T01:20:37.091Z,98.30
2023-05-04T01:23:04.097Z,99.30
2023-05-04T01:25:40.817Z,99.00
2023-05-04T01:28:12.434Z,98.30
2023-05-04T01:30:49.801Z,98.00
2023-05-04T01:33:17.070Z,98.30
2023-05-04T01:35:43.740Z,98.70
2023-05-04T01:38:10.388Z,99.20
2023-05-04T01:40:36.994Z,98.90
2023-05-04T01:43:03.672Z,99.50
2023-05-04T01:45:30.356Z,99.70
2023-05-04T01:47:56.906Z,99.90
2023-05-04T01:50:23.569Z,99.10
2023-05-04T01:52:50.649Z,99.90
2023-05-04T01:55:17.255Z,99.30
2023-05-04T01:57:43.876Z,99.70
2023-05-04T02:00:11.100Z,99.70
2023-05-04T02:02:37.790Z,99.90
2023-05-04T02:05:04.842Z,99.00
2023-05-04T02:07:31.398Z,99.10
2023-05-04T02:09:57.982Z,98.40
2023-05-04T02:12:24.605Z,98.80
2023-05-04T02:14:51.400Z,98.50
2023-05-04T02:17:17.986Z,98.60
2023-05-04T02:19:44.558Z,98.20
2023-05-04T02:22:11.145Z,98.00
2023-05-04T02:24:40.205Z,97.90
2023-05-04T02:27:07.785Z,98.10
2023-05-04T02:29:34.321Z,97.70
2023-05-04T02:32:00.942Z,97.90
2023-05-04T02:34:27.531Z,97.90
2023-05-04T02:36:54.126Z,97.60
2023-05-04T02:39:20.784Z,97.80
2023-05-04T02:41:47.396Z,97.90
2023-05-04T02:44:13.995Z,97.90
2023-05-04T02:46:40.556Z,98.10
2023-05-04T02:49:07.952Z,98.30
2023-05-04T02:51:34.498Z,98.10
2023-05-04T02:54:01.065Z,98.30
2023-05-04T02:56:27.614Z,98.20
2023-05-04T02:58:54.146Z,98.30
2023-05-04T03:01:20.894Z,98.30
2023-05-04T03:03:47.637Z,98.40
2023-05-04T03:06:14.327Z,98.40
2023-05-04T03:08:41.097Z,98.50
2023-05-04T03:11:07.674Z,98.70
2023-05-04T03:13:34.313Z,98.50
2023-05-04T03:16:00.940Z,98.50
2023-05-04T03:18:27.529Z,98.70
2023-05-04T03:20:54.180Z,99.10
2023-05-04T03:23:20.723Z,99.40
2023-05-04T03:25:47.290Z,99.30
2023-05-04T03:28:13.845Z,99.60
2023-05-04T03:30:40.451Z,99.50
2023-05-04T03:33:07.170Z,99.70
2023-05-04T03:35:33.881Z,99.60
2023-05-04T03:38:00.476Z,99.60
2023-05-04T03:40:27.091Z,99.80
2023-05-04T03:42:53.662Z,99.90
2023-05-04T03:45:20.439Z,99.80
2023-05-04T03:47:47.022Z,99.60
2023-05-04T03:50:13.671Z,99.70
2023-05-04T03:52:40.237Z,99.90
2023-05-04T03:55:07.345Z,99.90
2023-05-04T03:57:33.929Z,99.90
2023-05-04T04:00:00.644Z,99.90
2023-05-04T04:02:27.360Z,99.90
2023-05-04T04:04:53.989Z,99.90
2023-05-04T04:07:20.560Z,99.90
2023-05-04T04:09:47.271Z,99.90
2023-05-04T04:12:13.846Z,99.90
2023-05-04T04:14:40.963Z,99.90
2023-05-04T04:17:08.240Z,99.90
2023-05-04T04:19:34.860Z,99.90
2023-05-04T04:22:01.511Z,99.90
2023-05-04T04:24:28.181Z,99.90
2023-05-04T04:26:57.060Z,99.90
2023-05-04T04:29:23.914Z,99.90
2023-05-04T04:31:50.643Z,99.90
2023-05-04T04:34:17.824Z,99.90
2023-05-04T04:36:45.016Z,99.90
2023-05-04T04:39:11.610Z,99.90
2023-05-04T04:41:38.309Z,99.90
2023-05-04T04:44:05.036Z,99.90
2023-05-04T04:46:31.764Z,99.90
2023-05-04T04:48:58.489Z,99.90
2023-05-04T04:51:25.487Z,99.90
2023-05-04T04:53:52.329Z,99.90
2023-05-04T04:56:19.479Z,99.90
2023-05-04T04:58:47.448Z,99.90
2023-05-04T05:01:17.869Z,99.90
2023-05-04T05:03:48.995Z,99.90
2023-05-04T05:06:15.817Z,99.90
2023-05-04T05:08:43.882Z,99.90
2023-05-04T05:11:11.330Z,99.90
2023-05-04T05:13:37.916Z,99.90
2023-05-04T05:16:04.908Z,99.90
2023-05-04T05:18:32.055Z,99.90
2023-05-04T05:20:58.607Z,99.90
2023-05-04T05:23:25.156Z,99.90
2023-05-04T05:25:51.852Z,99.90
2023-05-04T05:28:18.531Z,99.90
2023-05-04T05:30:45.435Z,99.90
2023-05-04T05:33:12.221Z,99.90
2023-05-04T05:35:38.896Z,99.90
2023-05-04T05:38:05.499Z,99.90
2023-05-04T05:40:32.591Z,99.90
2023-05-04T05:42:59.175Z,99.90
2023-05-04T05:45:25.877Z,99.90
2023-05-04T05:47:52.520Z,99.80
2023-05-04T05:50:20.358Z,99.80
2023-05-04T05:52:46.956Z,98.90
2023-05-04T05:55:13.533Z,98.40
2023-05-04T05:57:40.214Z,98.10
2023-05-04T06:00:07.486Z,97.50
2023-05-04T06:02:34.283Z,97.60
2023-05-04T06:05:01.063Z,97.30
2023-05-04T06:07:27.668Z,97.30
2023-05-04T06:09:54.217Z,97.50
2023-05-04T06:12:21.329Z,96.40
2023-05-04T06:14:47.961Z,96.00
2023-05-04T06:17:14.564Z,95.80
2023-05-04T06:19:41.152Z,95.90
2023-05-04T06:22:08.148Z,95.20
2023-05-04T06:24:34.707Z,95.30
2023-05-04T06:27:02.260Z,94.80
2023-05-04T06:29:28.868Z,94.90
2023-05-04T06:31:56.244Z,95.00
2023-05-04T06:34:23.005Z,94.40
2023-05-04T06:36:49.558Z,94.20
2023-05-04T06:39:16.110Z,93.90
2023-05-04T06:41:42.799Z,94.00
2023-05-04T06:44:09.491Z,93.20
2023-05-04T06:46:39.455Z,93.60
2023-05-04T06:49:06.092Z,92.90
2023-05-04T06:51:35.161Z,92.70
2023-05-04T06:54:02.981Z,91.90
2023-05-04T06:56:29.519Z,91.50
2023-05-04T06:58:56.309Z,91.40
2023-05-04T07:01:22.963Z,91.80
2023-05-04T07:03:49.673Z,91.20
2023-05-04T07:06:16.244Z,90.70
2023-05-04T07:08:42.902Z,90.20
2023-05-04T07:11:10.286Z,89.60
2023-05-04T07:13:38.540Z,89.30
2023-05-04T07:16:07.868Z,87.40
2023-05-04T07:18:34.545Z,86.20
2023-05-04T07:21:16.036Z,86.70
2023-05-04T07:23:47.848Z,83.40
2023-05-04T07:26:14.485Z,87.70
2023-05-04T07:28:43.621Z,83.50
2023-05-04T07:31:12.750Z,82.30
2023-05-04T07:33:39.411Z,79.70
2023-05-04T07:36:06.664Z,78.10
2023-05-04T07:38:33.401Z,77.90
2023-05-04T07:40:59.952Z,77.30
2023-05-04T07:43:26.545Z,73.80
2023-05-04T07:45:53.585Z,72.40
2023-05-04T07:48:20.477Z,73.40
2023-05-04T07:50:47.586Z,69.90
2023-05-04T07:53:14.134Z,67.80
2023-05-04T07:55:40.701Z,65.90
2023-05-04T07:58:07.361Z,64.00
2023-05-04T08:00:34.034Z,61.70
2023-05-04T08:03:00.835Z,59.30
2023-05-04T08:05:27.478Z,59.00
2023-05-04T08:07:54.040Z,57.50
2023-05-04T08:10:20.721Z,58.10
2023-05-04T08:12:47.304Z,57.10
2023-05-04T08:15:14.607Z,55.50
2023-05-04T08:17:41.247Z,56.00
2023-05-04T08:20:09.384Z,55.70
2023-05-04T08:22:36.227Z,52.50
2023-05-04T08:25:03.329Z,53.20
2023-05-04T08:27:30.208Z,51.20
2023-05-04T08:29:59.732Z,48.20
2023-05-04T08:32:26.729Z,48.30
2023-05-04T08:34:53.472Z,48.30
2023-05-04T08:37:20.219Z,49.70
2023-05-04T08:39:46.872Z,47.10
2023-05-04T08:42:13.587Z,46.40
2023-05-04T08:44:42.016Z,45.60
2023-05-04T08:47:09.942Z,44.40
2023-05-04T08:49:36.624Z,44.10
2023-05-04T08:52:07.221Z,44.00
2023-05-04T08:54:35.203Z,42.90
2023-05-04T08:57:03.984Z,41.50
2023-05-04T08:59:32.335Z,42.40
2023-05-04T09:01:59.561Z,42.40
2023-05-04T09:04:28.662Z,41.10
2023-05-04T09:06:57.385Z,40.40
2023-05-04T09:09:27.887Z,40.20
2023-05-04T09:11:54.710Z,41.00
2023-05-04T09:14:22.988Z,41.20
2023-05-04T09:16:49.768Z,40.10
2023-05-04T09:19:18.474Z,39.40
2023-05-04T09:21:45.260Z,39.50
2023-05-04T09:24:12.600Z,39.90
2023-05-04T09:26:39.247Z,41.60
2023-05-04T09:29:16.105Z,39.90
2023-05-04T09:31:47.923Z,38.90
2023-05-04T09:34:15.122Z,38.50
2023-05-04T09:36:42.268Z,38.80
2023-05-04T09:39:13.506Z,38.60
2023-05-04T09:41:40.539Z,40.20
2023-05-04T09:44:17.963Z,39.60
2023-05-04T09:46:53.293Z,40.40
2023-05-04T09:49:32.717Z,38.20
2023-05-04T09:52:03.160Z,39.30
2023-05-04T09:54:35.034Z,37.50
2023-05-04T09:57:15.507Z,38.50
2023-05-04T09:59:42.737Z,39.00
2023-05-04T10:02:21.869Z,39.40
2023-05-04T10:04:51.667Z,39.80
2023-05-04T10:07:19.055Z,39.90
2023-05-04T10:09:48.487Z,40.60
2023-05-04T10:12:15.085Z,40.00
2023-05-04T10:14:42.905Z,39.10
2023-05-04T10:17:27.862Z,39.00
2023-05-04T10:20:28.215Z,39.20
2023-05-04T10:23:21.354Z,37.10
2023-05-04T10:26:15.251Z,36.10
2023-05-04T10:29:36.753Z,37.50
2023-05-04T10:32:03.990Z,34.70
2023-05-04T10:34:32.589Z,34.90
2023-05-04T10:37:00.628Z,34.20
2023-05-04T10:39:30.114Z,34.00
2023-05-04T10:42:01.530Z,32.60
2023-05-04T10:44:29.696Z,33.20
2023-05-04T10:47:00.665Z,33.50
2023-05-04T10:49:28.070Z,32.80
2023-05-04T10:52:09.718Z,34.00
2023-05-04T10:54:40.798Z,33.60
2023-05-04T10:57:13.396Z,34.40
2023-05-04T10:59:41.347Z,32.00
2023-05-04T11:02:08.528Z,33.30
2023-05-04T11:04:35.693Z,33.20
2023-05-04T11:07:08.597Z,32.50
2023-05-04T11:09:41.333Z,31.10
2023-05-04T11:12:11.675Z,32.50
2023-05-04T11:14:42.554Z,30.10
2023-05-04T11:17:26.612Z,32.40
2023-05-04T11:19:53.758Z,33.00
2023-05-04T11:22:20.443Z,31.20
2023-05-04T11:24:48.522Z,32.70
2023-05-04T11:27:29.240Z,31.20
2023-05-04T11:30:05.977Z,31.60
2023-05-04T11:32:37.905Z,32.20
2023-05-04T11:35:08.458Z,31.60
2023-05-04T11:37:40.408Z,31.50
2023-05-04T11:40:13.290Z,31.20
2023-05-04T11:42:43.581Z,33.20
2023-05-04T11:45:12.327Z,32.00
2023-05-04T11:47:39.936Z,33.30
2023-05-04T11:50:09.248Z,31.50
2023-05-04T11:52:36.475Z,32.10
2023-05-04T11:55:03.289Z,31.70
2023-05-04T11:57:32.865Z,32.10
2023-05-04T11:59:59.456Z,31.40
2023-05-04T12:02:26.885Z,32.20
2023-05-04T12:04:53.882Z,31.60
2023-05-04T12:07:20.901Z,32.10
2023-05-04T12:09:49.144Z,31.20
2023-05-04T12:12:18.796Z,30.70
2023-05-04T12:14:52.263Z,31.50
2023-05-04T12:17:21.994Z,30.20
2023-05-04T12:19:52.305Z,31.40
2023-05-04T12:22:28.354Z,31.30
2023-05-04T12:24:58.603Z,32.70
2023-05-04T12:27:28.814Z,34.10
2023-05-04T12:29:55.534Z,34.30
2023-05-04T12:32:22.285Z,34.90
2023-05-04T12:34:48.906Z,32.70
2023-05-04T12:37:15.698Z,34.10
2023-05-04T12:39:42.301Z,35.70
2023-05-04T12:42:08.842Z,35.20
2023-05-04T12:44:35.607Z,34.40
2023-05-04T12:47:02.137Z,36.20
2023-05-04T12:49:28.722Z,32.70
2023-05-04T12:51:55.413Z,32.70
2023-05-04T12:54:22.103Z,31.70
2023-05-04T12:56:48.753Z,32.90
2023-05-04T12:59:15.320Z,32.90
2023-05-04T13:01:43.465Z,33.30
2023-05-04T13:04:10.146Z,33.60
2023-05-04T13:06:36.788Z,34.90
2023-05-04T13:09:05.663Z,35.80
2023-05-04T13:11:32.674Z,34.70
2023-05-04T13:13:59.275Z,34.00
2023-05-04T13:16:27.919Z,33.10
2023-05-04T13:18:55.515Z,34.70
2023-05-04T13:21:22.516Z,33.00
2023-05-04T13:23:49.191Z,34.10
2023-05-04T13:26:15.916Z,34.90
2023-05-04T13:28:42.646Z,34.80
2023-05-04T13:31:10.145Z,35.60
2023-05-04T13:33:40.065Z,34.30
2023-05-04T13:36:07.076Z,34.20
2023-05-04T13:38:33.689Z,34.60
2023-05-04T13:41:00.278Z,33.70
2023-05-04T13:43:26.964Z,34.10
2023-05-04T13:45:53.659Z,36.00
2023-05-04T13:48:20.301Z,34.50
2023-05-04T13:50:46.936Z,34.90
2023-05-04T13:53:13.619Z,33.40
2023-05-04T13:55:40.241Z,33.40
2023-05-04T13:58:07.463Z,33.10
2023-05-04T14:00:34.077Z,33.90
2023-05-04T14:03:00.862Z,35.00
2023-05-04T14:05:27.560Z,34.10
2023-05-04T14:07:54.102Z,35.00
2023-05-04T14:10:20.923Z,34.90
2023-05-04T14:12:47.511Z,33.00
2023-05-04T14:15:16.393Z,32.30
2023-05-04T14:17:43.009Z,34.10
2023-05-04T14:20:10.245Z,33.80
2023-05-04T14:22:38.294Z,34.90
2023-05-04T14:25:05.861Z,34.80
2023-05-04T14:27:35.272Z,34.30
2023-05-04T14:30:03.652Z,34.80
2023-05-04T14:32:30.428Z,35.70
2023-05-04T14:35:06.335Z,35.70
2023-05-04T14:37:35.646Z,35.90
2023-05-04T14:40:07.355Z,35.90
2023-05-04T14:42:34.975Z,34.70
2023-05-04T14:45:01.576Z,36.10
2023-05-04T14:47:29.436Z,37.50
2023-05-04T14:49:57.194Z,37.40
2023-05-04T14:52:23.725Z,37.30
2023-05-04T14:54:50.350Z,38.60
2023-05-04T14:57:17.188Z,37.30
2023-05-04T14:59:43.884Z,36.30
2023-05-04T15:02:11.517Z,36.90
2023-05-04T15:04:38.344Z,36.90
2023-05-04T15:07:09.332Z,36.80
2023-05-04T15:09:36.043Z,38.60
2023-05-04T15:12:03.406Z,37.20
2023-05-04T15:14:29.980Z,37.50
2023-05-04T15:16:56.600Z,38.20
2023-05-04T15:19:23.141Z,38.80
2023-05-04T15:21:49.708Z,38.50
2023-05-04T15:24:16.384Z,38.20
2023-05-04T15:26:42.941Z,38.90
2023-05-04T15:29:09.558Z,39.20
2023-05-04T15:31:36.234Z,39.30
2023-05-04T15:34:02.905Z,39.70
2023-05-04T15:36:31.620Z,39.20
2023-05-04T15:38:58.196Z,38.30
2023-05-04T15:41:24.732Z,39.10
2023-05-04T15:43:51.353Z,40.30
2023-05-04T15:46:18.062Z,38.40
2023-05-04T15:48:44.721Z,40.00
2023-05-04T15:51:12.024Z,39.60
2023-05-04T15:53:38.829Z,39.50
2023-05-04T15:56:06.387Z,40.30
2023-05-04T15:58:33.546Z,40.20
2023-05-04T16:01:03.639Z,39.70
2023-05-04T16:03:31.410Z,41.50
2023-05-04T16:05:58.353Z,40.60
2023-05-04T16:08:25.645Z,41.20
2023-05-04T16:10:53.428Z,41.20
2023-05-04T16:13:20.902Z,41.30
2023-05-04T16:15:51.214Z,41.30
2023-05-04T16:18:18.441Z,41.10
2023-05-04T16:20:46.079Z,41.50
2023-05-04T16:23:17.467Z,41.80
2023-05-04T16:25:44.401Z,41.70
2023-05-04T16:28:11.233Z,41.70
2023-05-04T16:30:38.108Z,41.40
2023-05-04T16:33:04.932Z,41.50
2023-05-04T16:35:31.771Z,41.80
2023-05-04T16:37:58.918Z,42.90
2023-05-04T16:40:25.653Z,43.10
2023-05-04T16:42:52.223Z,42.70
2023-05-04T16:45:19.102Z,43.40
2023-05-04T16:47:46.399Z,42.70
2023-05-04T16:50:14.300Z,42.40
2023-05-04T16:52:41.255Z,43.90
2023-05-04T16:55:11.906Z,43.40
2023-05-04T16:57:39.423Z,43.40
2023-05-04T17:00:07.272Z,43.30
2023-05-04T17:02:34.654Z,44.00
2023-05-04T17:05:01.490Z,43.30
2023-05-04T17:07:28.392Z,44.50
2023-05-04T17:09:54.998Z,45.00
2023-05-04T17:12:23.113Z,45.20
2023-05-04T17:14:49.686Z,44.40
2023-05-04T17:17:16.221Z,44.70
2023-05-04T17:19:42.930Z,45.70
2023-05-04T17:22:11.024Z,45.50
2023-05-04T17:24:37.892Z,45.30
2023-05-04T17:27:04.561Z,45.50
2023-05-04T17:29:31.512Z,46.10
2023-05-04T17:31:58.156Z,47.20
2023-05-04T17:34:24.863Z,46.90
2023-05-04T17:36:51.513Z,46.60
2023-05-04T17:39:18.643Z,49.90
2023-05-04T17:41:48.714Z,46.90
2023-05-04T17:44:16.283Z,46.60
2023-05-04T17:46:43.154Z,47.20
2023-05-04T17:49:09.983Z,48.00
2023-05-04T17:51:36.527Z,47.80
2023-05-04T17:54:03.198Z,48.40
2023-05-04T17:56:29.766Z,48.40
2023-05-04T17:58:56.343Z,47.60
2023-05-04T18:01:22.966Z,50.70
2023-05-04T18:03:49.620Z,49.90
2023-05-04T18:06:16.305Z,50.50
2023-05-04T18:08:42.958Z,49.70
2023-05-04T18:11:09.542Z,51.50
2023-05-04T18:13:36.125Z,50.00
2023-05-04T18:16:02.806Z,52.90
2023-05-04T18:18:29.468Z,53.10
2023-05-04T18:20:58.557Z,52.00
2023-05-04T18:23:25.094Z,53.40
2023-05-04T18:25:51.763Z,54.10
2023-05-04T18:28:18.370Z,52.60
2023-05-04T18:30:45.091Z,54.10
2023-05-04T18:33:11.752Z,55.20
2023-05-04T18:35:38.324Z,54.40
2023-05-04T18:38:04.980Z,56.00
2023-05-04T18:40:31.943Z,58.10
2023-05-04T18:42:58.549Z,58.50
2023-05-04T18:45:25.152Z,55.30
2023-05-04T18:47:51.742Z,56.80
2023-05-04T18:50:18.342Z,57.00
2023-05-04T18:52:44.883Z,57.00
2023-05-04T18:55:11.584Z,57.30
2023-05-04T18:57:38.135Z,58.40
2023-05-04T19:00:09.074Z,59.60
2023-05-04T19:02:36.892Z,60.40
2023-05-04T19:05:03.596Z,57.90
2023-05-04T19:07:30.183Z,59.00
2023-05-04T19:09:56.802Z,58.90
2023-05-04T19:12:23.787Z,59.60
2023-05-04T19:14:51.089Z,60.30
2023-05-04T19:17:18.355Z,60.80
2023-05-04T19:19:44.956Z,60.70
2023-05-04T19:22:13.123Z,60.20
2023-05-04T19:24:39.798Z,61.40
2023-05-04T19:27:07.034Z,58.40
2023-05-04T19:29:33.756Z,62.10
2023-05-04T19:32:05.666Z,61.80
2023-05-04T19:34:42.775Z,62.00
2023-05-04T19:37:09.547Z,61.00
2023-05-04T19:39:36.514Z,58.40
2023-05-04T19:42:03.200Z,61.90
2023-05-04T19:44:29.802Z,62.10
2023-05-04T19:46:56.489Z,62.30
2023-05-04T19:49:24.901Z,61.20
2023-05-04T19:51:51.479Z,66.10
2023-05-04T19:54:18.096Z,64.40
2023-05-04T19:56:44.670Z,66.80
2023-05-04T19:59:11.274Z,68.20
2023-05-04T20:01:37.896Z,71.00
2023-05-04T20:04:05.869Z,72.00
2023-05-04T20:06:32.429Z,70.50
2023-05-04T20:08:58.990Z,73.10
2023-05-04T20:11:25.780Z,72.00
2023-05-04T20:13:54.115Z,74.60
2023-05-04T20:16:22.141Z,76.70
2023-05-04T20:18:48.996Z,74.20
2023-05-04T20:21:15.580Z,76.10
2023-05-04T20:23:42.150Z,77.00
2023-05-04T20:26:08.737Z,79.10
2023-05-04T20:28:35.316Z,82.30
2023-05-04T20:31:01.865Z,85.80
2023-05-04T20:33:28.461Z,84.10
2023-05-04T20:35:55.071Z,82.90
2023-05-04T20:38:21.684Z,83.50
2023-05-04T20:40:49.362Z,83.10
2023-05-04T20:43:16.443Z,84.40
2023-05-04T20:45:42.986Z,90.70
2023-05-04T20:48:09.645Z,90.40
2023-05-04T20:50:36.440Z,88.70
2023-05-04T20:53:03.054Z,88.50
2023-05-04T20:55:29.844Z,90.90
2023-05-04T20:57:56.472Z,92.50
2023-05-04T21:00:24.630Z,91.50
2023-05-04T21:02:51.375Z,92.50
2023-05-04T21:05:18.060Z,91.40
2023-05-04T21:07:44.646Z,92.00
2023-05-04T21:10:11.321Z,92.20
2023-05-04T21:12:38.003Z,92.80
2023-05-04T21:15:05.440Z,93.70
2023-05-04T21:17:32.022Z,93.50
2023-05-04T21:19:58.635Z,95.00
2023-05-04T21:22:25.179Z,95.80
2023-05-04T21:24:51.800Z,95.00
2023-05-04T21:27:18.345Z,96.10
2023-05-04T21:29:44.914Z,95.70
2023-05-04T21:32:11.558Z,96.60
2023-05-04T21:34:38.130Z,96.20
2023-05-04T21:37:04.687Z,97.10
2023-05-04T21:39:31.617Z,96.90
2023-05-04T21:41:58.332Z,97.40
2023-05-04T21:44:25.120Z,97.40
2023-05-04T21:46:51.922Z,97.30
2023-05-04T21:49:18.563Z,97.70
2023-05-04T21:51:45.132Z,97.50
2023-05-04T21:54:11.696Z,97.70
2023-05-04T21:56:40.823Z,98.50
2023-05-04T21:59:07.418Z,98.40
2023-05-04T22:01:33.986Z,98.30
2023-05-04T22:04:00.911Z,98.60
2023-05-04T22:06:27.631Z,98.40
2023-05-04T22:08:54.197Z,98.50
2023-05-04T22:11:23.844Z,98.70
2023-05-04T22:13:50.425Z,99.30
2023-05-04T22:16:17.005Z,98.70
2023-05-04T22:18:43.602Z,99.40
2023-05-04T22:21:10.437Z,99.70
2023-05-04T22:23:37.004Z,98.10
2023-05-04T22:26:03.777Z,99.10
2023-05-04T22:28:30.376Z,97.90
2023-05-04T22:30:57.322Z,97.50
2023-05-04T22:33:24.378Z,97.20
2023-05-04T22:35:51.452Z,96.10
2023-05-04T22:38:18.006Z,96.10
2023-05-04T22:40:44.548Z,95.50
2023-05-04T22:43:11.151Z,95.60
2023-05-04T22:45:38.833Z,95.60
2023-05-04T22:48:05.473Z,95.60
2023-05-04T22:50:32.316Z,95.40
2023-05-04T22:52:59.039Z,95.60
2023-05-04T22:55:25.748Z,95.30
2023-05-04T22:57:52.619Z,95.50
2023-05-04T23:00:19.721Z,95.60
2023-05-04T23:02:46.576Z,95.60
2023-05-04T23:05:13.239Z,95.10
2023-05-04T23:07:40.417Z,94.40
2023-05-04T23:10:07.885Z,94.00
2023-05-04T23:12:34.665Z,93.90
2023-05-04T23:15:01.290Z,93.60
2023-05-04T23:17:27.917Z,93.50
2023-05-04T23:19:54.607Z,93.00
2023-05-04T23:22:21.333Z,93.30
2023-05-04T23:24:47.879Z,93.40
2023-05-04T23:27:14.420Z,93.50
2023-05-04T23:29:41.050Z,93.10
2023-05-04T23:32:07.784Z,93.00
2023-05-04T23:34:34.419Z,93.10
2023-05-04T23:37:01.069Z,92.40
2023-05-04T23:39:27.721Z,94.70
2023-05-04T23:41:54.301Z,94.50
2023-05-04T23:44:21.237Z,96.50
2023-05-04T23:46:48.030Z,97.70
2023-05-04T23:49:14.666Z,97.90
2023-05-04T23:51:41.209Z,96.60
2023-05-04T23:54:07.769Z,97.10
2023-05-04T23:56:34.304Z,97.00
2023-05-04T23:59:00.901Z,96.70
